sensor_id;sensor_type;location;lat;lon;timestamp;noise_LAeq;noise_LA_min;noise_LA_max;noise_LA01;noise_LA95
67300;Laerm;57658;51.436;5.980;2023-11-21T00:00:02;38.85;29.57;50.82;;
67300;Laerm;57658;51.436;5.980;2023-11-21T00:00:14;52.43;30.37;67.25;;
67300;Laerm;57658;51.436;5.980;2023-11-21T00:00:24;35.34;30.42;47.97;;
67300;Laerm;57658;51.436;5.980;2023-11-21T00:00:36;35.09;30.80;49.01;;
67300;Laerm;57658;51.436;5.980;2023-11-21T00:00:46;35.55;30.82;49.76;;
67300;Laerm;57658;51.436;5.980;2023-11-21T00:00:57;34.56;30.25;48.69;;
67300;Laerm;57658;51.436;5.980;2023-11-21T00:01:08;35.09;29.72;49.02;;
67300;Laerm;57658;51.436;5.980;2023-11-21T00:01:19;34.13;28.78;48.30;;
67300;Laerm;57658;51.436;5.980;2023-11-21T00:01:29;33.80;29.23;48.69;;
67300;Laerm;57658;51.436;5.980;2023-11-21T00:01:39;32.96;29.52;46.92;;
67300;Laerm;57658;51.436;5.980;2023-11-21T00:01:50;33.77;29.35;47.46;;
67300;Laerm;57658;51.436;5.980;2023-11-21T00:02:00;33.25;29.47;48.20;;
67300;Laerm;57658;51.436;5.980;2023-11-21T00:02:10;31.96;29.13;45.57;;
67300;Laerm;57658;51.436;5.980;2023-11-21T00:02:21;31.04;29.35;32.57;;
67300;Laerm;57658;51.436;5.980;2023-11-21T00:02:31;31.50;29.36;34.11;;
67300;Laerm;57658;51.436;5.980;2023-11-21T00:02:41;34.72;31.53;38.53;;
67300;Laerm;57658;51.436;5.980;2023-11-21T00:02:52;33.95;31.19;39.20;;
67300;Laerm;57658;51.436;5.980;2023-11-21T00:03:02;31.91;30.28;34.01;;
67300;Laerm;57658;51.436;5.980;2023-11-21T00:03:14;31.61;29.83;32.86;;
67300;Laerm;57658;51.436;5.980;2023-11-21T00:03:25;32.83;30.58;35.50;;
67300;Laerm;57658;51.436;5.980;2023-11-21T00:03:38;32.41;30.10;35.16;;
67300;Laerm;57658;51.436;5.980;2023-11-21T00:03:48;31.90;30.23;33.30;;
67300;Laerm;57658;51.436;5.980;2023-11-21T00:03:58;32.02;30.47;33.50;;
67300;Laerm;57658;51.436;5.980;2023-11-21T00:04:09;32.28;30.67;33.57;;
67300;Laerm;57658;51.436;5.980;2023-11-21T00:04:19;32.33;31.08;33.40;;
67300;Laerm;57658;51.436;5.980;2023-11-21T00:04:29;32.41;31.00;33.92;;
67300;Laerm;57658;51.436;5.980;2023-11-21T00:04:40;31.98;30.57;33.41;;
67300;Laerm;57658;51.436;5.980;2023-11-21T00:04:50;33.17;30.30;37.34;;
67300;Laerm;57658;51.436;5.980;2023-11-21T00:05:01;38.69;34.28;43.61;;
67300;Laerm;57658;51.436;5.980;2023-11-21T00:05:13;40.93;34.40;49.42;;
67300;Laerm;57658;51.436;5.980;2023-11-21T00:05:24;34.30;30.82;38.06;;
67300;Laerm;57658;51.436;5.980;2023-11-21T00:05:34;31.81;29.94;34.24;;
67300;Laerm;57658;51.436;5.980;2023-11-21T00:05:45;31.01;29.36;32.56;;
67300;Laerm;57658;51.436;5.980;2023-11-21T00:05:55;31.16;29.74;32.59;;
67300;Laerm;57658;51.436;5.980;2023-11-21T00:06:06;31.40;29.87;33.01;;
67300;Laerm;57658;51.436;5.980;2023-11-21T00:06:19;31.50;29.96;33.30;;
67300;Laerm;57658;51.436;5.980;2023-11-21T00:06:30;31.14;29.17;33.29;;
67300;Laerm;57658;51.436;5.980;2023-11-21T00:06:40;31.20;29.70;33.00;;
67300;Laerm;57658;51.436;5.980;2023-11-21T00:06:50;31.32;29.59;32.58;;
67300;Laerm;57658;51.436;5.980;2023-11-21T00:07:01;31.55;29.88;33.63;;
67300;Laerm;57658;51.436;5.980;2023-11-21T00:07:11;31.81;29.88;33.46;;
67300;Laerm;57658;51.436;5.980;2023-11-21T00:07:21;32.03;30.47;34.36;;
67300;Laerm;57658;51.436;5.980;2023-11-21T00:07:32;31.75;30.26;33.17;;
67300;Laerm;57658;51.436;5.980;2023-11-21T00:07:42;31.98;30.61;33.19;;
67300;Laerm;57658;51.436;5.980;2023-11-21T00:07:53;32.07;30.86;33.21;;
67300;Laerm;57658;51.436;5.980;2023-11-21T00:08:03;31.72;29.80;33.05;;
67300;Laerm;57658;51.436;5.980;2023-11-21T00:08:15;30.63;28.65;32.16;;
67300;Laerm;57658;51.436;5.980;2023-11-21T00:08:25;30.24;28.89;31.61;;
67300;Laerm;57658;51.436;5.980;2023-11-21T00:08:36;30.36;28.94;31.57;;
67300;Laerm;57658;51.436;5.980;2023-11-21T00:08:46;30.57;28.83;31.81;;
67300;Laerm;57658;51.436;5.980;2023-11-21T00:08:56;30.86;29.20;31.97;;
67300;Laerm;57658;51.436;5.980;2023-11-21T00:09:07;30.93;28.84;32.19;;
67300;Laerm;57658;51.436;5.980;2023-11-21T00:09:18;31.21;29.44;32.76;;
67300;Laerm;57658;51.436;5.980;2023-11-21T00:09:29;31.24;29.53;32.89;;
67300;Laerm;57658;51.436;5.980;2023-11-21T00:09:40;31.48;29.46;33.32;;
67300;Laerm;57658;51.436;5.980;2023-11-21T00:09:51;31.45;29.63;32.86;;
67300;Laerm;57658;51.436;5.980;2023-11-21T00:10:01;31.12;29.71;32.89;;
67300;Laerm;57658;51.436;5.980;2023-11-21T00:10:12;31.23;29.04;32.72;;
67300;Laerm;57658;51.436;5.980;2023-11-21T00:10:24;31.59;29.51;33.39;;
67300;Laerm;57658;51.436;5.980;2023-11-21T00:10:34;31.54;29.48;32.92;;
67300;Laerm;57658;51.436;5.980;2023-11-21T00:10:45;32.34;30.24;38.06;;
67300;Laerm;57658;51.436;5.980;2023-11-21T00:10:55;36.67;30.65;50.43;;
67300;Laerm;57658;51.436;5.980;2023-11-21T00:11:05;39.02;31.45;53.44;;
67300;Laerm;57658;51.436;5.980;2023-11-21T00:11:15;36.82;31.30;46.45;;
67300;Laerm;57658;51.436;5.980;2023-11-21T00:11:26;32.70;31.33;33.87;;
67300;Laerm;57658;51.436;5.980;2023-11-21T00:11:36;32.45;30.67;33.66;;
67300;Laerm;57658;51.436;5.980;2023-11-21T00:11:48;31.28;29.85;32.87;;
67300;Laerm;57658;51.436;5.980;2023-11-21T00:11:58;30.69;29.31;32.22;;
67300;Laerm;57658;51.436;5.980;2023-11-21T00:12:09;30.80;29.46;32.05;;
67300;Laerm;57658;51.436;5.980;2023-11-21T00:12:20;31.09;29.39;32.46;;
67300;Laerm;57658;51.436;5.980;2023-11-21T00:12:31;31.17;29.65;32.43;;
67300;Laerm;57658;51.436;5.980;2023-11-21T00:12:41;31.17;29.56;32.63;;
67300;Laerm;57658;51.436;5.980;2023-11-21T00:12:52;31.39;29.32;35.00;;
67300;Laerm;57658;51.436;5.980;2023-11-21T00:13:05;31.56;29.63;33.36;;
67300;Laerm;57658;51.436;5.980;2023-11-21T00:13:15;31.59;29.78;33.52;;
67300;Laerm;57658;51.436;5.980;2023-11-21T00:13:25;31.43;29.26;33.17;;
67300;Laerm;57658;51.436;5.980;2023-11-21T00:13:35;31.44;29.60;33.03;;
67300;Laerm;57658;51.436;5.980;2023-11-21T00:13:46;31.65;29.58;33.64;;
67300;Laerm;57658;51.436;5.980;2023-11-21T00:13:56;31.84;29.66;33.38;;
67300;Laerm;57658;51.436;5.980;2023-11-21T00:14:06;32.00;30.10;33.82;;
67300;Laerm;57658;51.436;5.980;2023-11-21T00:14:18;32.10;30.21;33.73;;
67300;Laerm;57658;51.436;5.980;2023-11-21T00:14:28;32.14;30.77;33.52;;
67300;Laerm;57658;51.436;5.980;2023-11-21T00:14:38;32.50;31.13;33.78;;
67300;Laerm;57658;51.436;5.980;2023-11-21T00:14:49;32.63;31.31;33.90;;
67300;Laerm;57658;51.436;5.980;2023-11-21T00:14:59;32.38;30.76;33.96;;
67300;Laerm;57658;51.436;5.980;2023-11-21T00:15:10;31.54;30.18;32.95;;
67300;Laerm;57658;51.436;5.980;2023-11-21T00:15:23;31.02;29.28;33.05;;
67300;Laerm;57658;51.436;5.980;2023-11-21T00:15:33;31.10;29.63;32.47;;
67300;Laerm;57658;51.436;5.980;2023-11-21T00:15:43;31.24;29.94;32.59;;
67300;Laerm;57658;51.436;5.980;2023-11-21T00:15:54;31.21;29.74;32.62;;
67300;Laerm;57658;51.436;5.980;2023-11-21T00:16:04;31.23;29.48;32.74;;
67300;Laerm;57658;51.436;5.980;2023-11-21T00:16:14;31.28;29.71;32.58;;
67300;Laerm;57658;51.436;5.980;2023-11-21T00:16:25;31.43;30.03;32.99;;
67300;Laerm;57658;51.436;5.980;2023-11-21T00:16:35;32.15;30.10;33.99;;
67300;Laerm;57658;51.436;5.980;2023-11-21T00:16:45;33.17;30.81;37.16;;
67300;Laerm;57658;51.436;5.980;2023-11-21T00:16:56;31.66;29.81;33.11;;
67300;Laerm;57658;51.436;5.980;2023-11-21T00:17:06;31.98;29.95;33.81;;
67300;Laerm;57658;51.436;5.980;2023-11-21T00:17:16;33.42;31.13;35.50;;
67300;Laerm;57658;51.436;5.980;2023-11-21T00:17:26;32.07;30.13;33.67;;
67300;Laerm;57658;51.436;5.980;2023-11-21T00:17:37;32.26;30.08;33.87;;
67300;Laerm;57658;51.436;5.980;2023-11-21T00:17:47;33.65;31.26;36.33;;
67300;Laerm;57658;51.436;5.980;2023-11-21T00:17:58;35.11;31.95;40.26;;
67300;Laerm;57658;51.436;5.980;2023-11-21T00:18:08;37.00;32.25;41.40;;
67300;Laerm;57658;51.436;5.980;2023-11-21T00:18:18;39.73;33.89;46.45;;
67300;Laerm;57658;51.436;5.980;2023-11-21T00:18:29;40.29;33.67;47.55;;
67300;Laerm;57658;51.436;5.980;2023-11-21T00:18:39;42.44;36.06;48.19;;
67300;Laerm;57658;51.436;5.980;2023-11-21T00:18:50;43.66;34.19;51.69;;
67300;Laerm;57658;51.436;5.980;2023-11-21T00:19:01;39.06;32.08;44.38;;
67300;Laerm;57658;51.436;5.980;2023-11-21T00:19:11;33.65;30.40;40.55;;
67300;Laerm;57658;51.436;5.980;2023-11-21T00:19:22;31.83;30.10;34.23;;
67300;Laerm;57658;51.436;5.980;2023-11-21T00:19:32;31.94;30.07;34.80;;
67300;Laerm;57658;51.436;5.980;2023-11-21T00:19:45;31.70;29.71;34.39;;
67300;Laerm;57658;51.436;5.980;2023-11-21T00:19:56;31.53;29.94;33.13;;
67300;Laerm;57658;51.436;5.980;2023-11-21T00:20:06;31.68;29.56;33.87;;
67300;Laerm;57658;51.436;5.980;2023-11-21T00:20:16;31.83;29.77;37.03;;
67300;Laerm;57658;51.436;5.980;2023-11-21T00:20:27;31.56;29.02;33.78;;
67300;Laerm;57658;51.436;5.980;2023-11-21T00:20:37;31.54;29.69;32.95;;
67300;Laerm;57658;51.436;5.980;2023-11-21T00:20:47;31.87;29.52;37.80;;
67300;Laerm;57658;51.436;5.980;2023-11-21T00:20:58;33.03;30.51;36.77;;
67300;Laerm;57658;51.436;5.980;2023-11-21T00:21:09;40.90;32.93;49.04;;
67300;Laerm;57658;51.436;5.980;2023-11-21T00:21:19;43.59;37.94;47.96;;
67300;Laerm;57658;51.436;5.980;2023-11-21T00:21:29;37.97;34.91;41.69;;
67300;Laerm;57658;51.436;5.980;2023-11-21T00:21:40;35.47;32.84;40.39;;
67300;Laerm;57658;51.436;5.980;2023-11-21T00:21:50;33.09;31.09;34.99;;
67300;Laerm;57658;51.436;5.980;2023-11-21T00:22:00;32.61;31.07;34.25;;
67300;Laerm;57658;51.436;5.980;2023-11-21T00:22:10;32.26;30.54;33.78;;
67300;Laerm;57658;51.436;5.980;2023-11-21T00:22:21;31.89;30.31;34.07;;
67300;Laerm;57658;51.436;5.980;2023-11-21T00:22:31;34.74;29.40;40.38;;
67300;Laerm;57658;51.436;5.980;2023-11-21T00:22:42;49.33;37.32;56.78;;
67300;Laerm;57658;51.436;5.980;2023-11-21T00:22:52;43.56;37.52;48.29;;
67300;Laerm;57658;51.436;5.980;2023-11-21T00:23:03;40.49;36.28;44.22;;
67300;Laerm;57658;51.436;5.980;2023-11-21T00:23:13;37.75;34.25;41.35;;
67300;Laerm;57658;51.436;5.980;2023-11-21T00:23:23;34.20;31.13;39.00;;
67300;Laerm;57658;51.436;5.980;2023-11-21T00:23:33;33.28;31.43;35.14;;
67300;Laerm;57658;51.436;5.980;2023-11-21T00:23:44;32.90;30.42;35.29;;
67300;Laerm;57658;51.436;5.980;2023-11-21T00:23:54;31.91;30.43;33.92;;
67300;Laerm;57658;51.436;5.980;2023-11-21T00:24:04;31.74;29.81;33.22;;
67300;Laerm;57658;51.436;5.980;2023-11-21T00:24:15;31.58;29.44;38.13;;
67300;Laerm;57658;51.436;5.980;2023-11-21T00:24:25;31.74;29.92;34.78;;
67300;Laerm;57658;51.436;5.980;2023-11-21T00:24:35;31.59;29.82;33.43;;
67300;Laerm;57658;51.436;5.980;2023-11-21T00:24:46;31.85;30.02;35.75;;
67300;Laerm;57658;51.436;5.980;2023-11-21T00:24:56;32.06;30.73;34.96;;
67300;Laerm;57658;51.436;5.980;2023-11-21T00:25:07;32.28;30.71;33.75;;
67300;Laerm;57658;51.436;5.980;2023-11-21T00:25:18;32.49;31.10;34.31;;
67300;Laerm;57658;51.436;5.980;2023-11-21T00:25:30;32.58;31.24;34.14;;
67300;Laerm;57658;51.436;5.980;2023-11-21T00:25:41;32.48;30.81;34.16;;
67300;Laerm;57658;51.436;5.980;2023-11-21T00:25:51;31.36;29.90;32.73;;
67300;Laerm;57658;51.436;5.980;2023-11-21T00:26:01;31.23;29.87;32.69;;
67300;Laerm;57658;51.436;5.980;2023-11-21T00:26:12;31.27;29.97;33.40;;
67300;Laerm;57658;51.436;5.980;2023-11-21T00:26:22;31.44;29.90;32.92;;
67300;Laerm;57658;51.436;5.980;2023-11-21T00:26:34;31.61;29.81;33.86;;
67300;Laerm;57658;51.436;5.980;2023-11-21T00:26:46;31.12;29.34;32.63;;
67300;Laerm;57658;51.436;5.980;2023-11-21T00:26:58;31.17;29.37;35.35;;
67300;Laerm;57658;51.436;5.980;2023-11-21T00:27:08;31.21;29.64;33.30;;
67300;Laerm;57658;51.436;5.980;2023-11-21T00:27:19;31.19;29.44;33.58;;
67300;Laerm;57658;51.436;5.980;2023-11-21T00:27:30;31.09;29.43;33.21;;
67300;Laerm;57658;51.436;5.980;2023-11-21T00:27:41;31.11;29.20;33.08;;
67300;Laerm;57658;51.436;5.980;2023-11-21T00:27:52;31.21;29.49;33.53;;
67300;Laerm;57658;51.436;5.980;2023-11-21T00:28:02;31.30;29.65;33.27;;
67300;Laerm;57658;51.436;5.980;2023-11-21T00:28:13;31.25;29.71;32.77;;
67300;Laerm;57658;51.436;5.980;2023-11-21T00:28:24;31.52;29.94;33.62;;
67300;Laerm;57658;51.436;5.980;2023-11-21T00:28:35;31.68;30.03;33.63;;
67300;Laerm;57658;51.436;5.980;2023-11-21T00:28:45;31.89;30.64;34.18;;
67300;Laerm;57658;51.436;5.980;2023-11-21T00:28:55;31.93;30.47;33.11;;
67300;Laerm;57658;51.436;5.980;2023-11-21T00:29:06;31.66;30.06;34.35;;
67300;Laerm;57658;51.436;5.980;2023-11-21T00:29:18;30.82;29.25;32.78;;
67300;Laerm;57658;51.436;5.980;2023-11-21T00:29:28;30.24;28.70;32.15;;
67300;Laerm;57658;51.436;5.980;2023-11-21T00:29:38;30.39;28.92;31.91;;
67300;Laerm;57658;51.436;5.980;2023-11-21T00:29:49;30.56;29.13;31.92;;
67300;Laerm;57658;51.436;5.980;2023-11-21T00:29:59;30.77;29.29;32.65;;
67300;Laerm;57658;51.436;5.980;2023-11-21T00:30:09;30.68;28.63;32.76;;
67300;Laerm;57658;51.436;5.980;2023-11-21T00:30:20;30.75;29.19;32.32;;
67300;Laerm;57658;51.436;5.980;2023-11-21T00:30:32;30.82;29.00;32.11;;
67300;Laerm;57658;51.436;5.980;2023-11-21T00:30:43;31.07;29.33;36.55;;
67300;Laerm;57658;51.436;5.980;2023-11-21T00:30:53;30.94;29.27;32.20;;
67300;Laerm;57658;51.436;5.980;2023-11-21T00:31:04;31.26;29.12;34.89;;
67300;Laerm;57658;51.436;5.980;2023-11-21T00:31:14;53.45;29.29;68.11;;
67300;Laerm;57658;51.436;5.980;2023-11-21T00:31:24;31.39;29.53;43.77;;
67300;Laerm;57658;51.436;5.980;2023-11-21T00:31:35;31.35;29.58;32.81;;
67300;Laerm;57658;51.436;5.980;2023-11-21T00:31:48;31.54;29.84;33.21;;
67300;Laerm;57658;51.436;5.980;2023-11-21T00:31:59;31.48;29.68;32.88;;
67300;Laerm;57658;51.436;5.980;2023-11-21T00:32:09;31.81;30.38;33.19;;
67300;Laerm;57658;51.436;5.980;2023-11-21T00:32:19;32.36;30.64;40.28;;
67300;Laerm;57658;51.436;5.980;2023-11-21T00:32:29;32.24;30.43;33.38;;
67300;Laerm;57658;51.436;5.980;2023-11-21T00:32:40;32.21;30.69;33.53;;
67300;Laerm;57658;51.436;5.980;2023-11-21T00:32:50;31.21;29.37;32.96;;
67300;Laerm;57658;51.436;5.980;2023-11-21T00:33:00;30.52;29.16;32.12;;
67300;Laerm;57658;51.436;5.980;2023-11-21T00:33:10;30.42;28.85;32.72;;
67300;Laerm;57658;51.436;5.980;2023-11-21T00:33:21;30.74;28.97;33.16;;
67300;Laerm;57658;51.436;5.980;2023-11-21T00:33:31;30.92;29.48;32.58;;
67300;Laerm;57658;51.436;5.980;2023-11-21T00:33:42;31.10;29.02;32.58;;
67300;Laerm;57658;51.436;5.980;2023-11-21T00:33:53;31.15;29.44;32.73;;
67300;Laerm;57658;51.436;5.980;2023-11-21T00:34:04;31.07;29.20;32.51;;
67300;Laerm;57658;51.436;5.980;2023-11-21T00:34:18;31.65;29.66;33.60;;
67300;Laerm;57658;51.436;5.980;2023-11-21T00:34:28;32.62;30.31;36.33;;
67300;Laerm;57658;51.436;5.980;2023-11-21T00:34:39;32.39;29.90;35.85;;
67300;Laerm;57658;51.436;5.980;2023-11-21T00:34:50;31.42;29.69;33.07;;
67300;Laerm;57658;51.436;5.980;2023-11-21T00:35:00;34.03;29.44;43.13;;
67300;Laerm;57658;51.436;5.980;2023-11-21T00:35:10;34.68;31.08;40.77;;
67300;Laerm;57658;51.436;5.980;2023-11-21T00:35:21;38.09;32.12;45.59;;
67300;Laerm;57658;51.436;5.980;2023-11-21T00:35:31;40.78;32.76;51.40;;
67300;Laerm;57658;51.436;5.980;2023-11-21T00:35:41;39.08;32.52;45.82;;
67300;Laerm;57658;51.436;5.980;2023-11-21T00:35:52;37.17;31.87;46.32;;
67300;Laerm;57658;51.436;5.980;2023-11-21T00:36:02;35.10;31.41;42.02;;
67300;Laerm;57658;51.436;5.980;2023-11-21T00:36:12;35.31;31.99;40.64;;
67300;Laerm;57658;51.436;5.980;2023-11-21T00:36:22;35.13;30.26;42.11;;
67300;Laerm;57658;51.436;5.980;2023-11-21T00:36:33;35.47;30.73;43.27;;
67300;Laerm;57658;51.436;5.980;2023-11-21T00:36:43;33.85;30.61;38.09;;
67300;Laerm;57658;51.436;5.980;2023-11-21T00:36:53;32.90;29.70;36.64;;
67300;Laerm;57658;51.436;5.980;2023-11-21T00:37:04;32.35;30.03;37.56;;
67300;Laerm;57658;51.436;5.980;2023-11-21T00:37:14;31.19;29.70;32.61;;
67300;Laerm;57658;51.436;5.980;2023-11-21T00:37:24;31.22;28.81;32.86;;
67300;Laerm;57658;51.436;5.980;2023-11-21T00:37:35;31.61;29.58;34.19;;
67300;Laerm;57658;51.436;5.980;2023-11-21T00:37:45;31.56;29.88;33.16;;
67300;Laerm;57658;51.436;5.980;2023-11-21T00:37:55;31.49;29.83;33.29;;
67300;Laerm;57658;51.436;5.980;2023-11-21T00:38:06;31.24;29.17;34.10;;
67300;Laerm;57658;51.436;5.980;2023-11-21T00:38:18;31.49;29.29;33.00;;
67300;Laerm;57658;51.436;5.980;2023-11-21T00:38:30;31.58;29.63;33.29;;
67300;Laerm;57658;51.436;5.980;2023-11-21T00:38:40;31.67;29.73;33.82;;
67300;Laerm;57658;51.436;5.980;2023-11-21T00:38:50;31.64;29.67;33.33;;
67300;Laerm;57658;51.436;5.980;2023-11-21T00:39:01;31.81;30.16;33.64;;
67300;Laerm;57658;51.436;5.980;2023-11-21T00:39:12;32.10;30.18;33.85;;
67300;Laerm;57658;51.436;5.980;2023-11-21T00:39:23;32.29;30.56;34.72;;
67300;Laerm;57658;51.436;5.980;2023-11-21T00:39:33;32.49;30.50;34.50;;
67300;Laerm;57658;51.436;5.980;2023-11-21T00:39:45;32.43;30.45;33.75;;
67300;Laerm;57658;51.436;5.980;2023-11-21T00:39:55;31.06;29.68;32.78;;
67300;Laerm;57658;51.436;5.980;2023-11-21T00:40:06;30.59;29.07;32.85;;
67300;Laerm;57658;51.436;5.980;2023-11-21T00:40:17;30.71;29.37;32.07;;
67300;Laerm;57658;51.436;5.980;2023-11-21T00:40:31;31.14;29.26;33.01;;
67300;Laerm;57658;51.436;5.980;2023-11-21T00:40:41;31.14;29.52;33.63;;
67300;Laerm;57658;51.436;5.980;2023-11-21T00:40:52;30.94;29.23;32.56;;
67300;Laerm;57658;51.436;5.980;2023-11-21T00:41:03;31.13;29.39;32.72;;
67300;Laerm;57658;51.436;5.980;2023-11-21T00:41:13;31.39;29.90;33.47;;
67300;Laerm;57658;51.436;5.980;2023-11-21T00:41:23;31.71;29.67;33.13;;
67300;Laerm;57658;51.436;5.980;2023-11-21T00:41:34;32.11;29.59;34.18;;
67300;Laerm;57658;51.436;5.980;2023-11-21T00:41:46;31.92;30.06;34.68;;
67300;Laerm;57658;51.436;5.980;2023-11-21T00:41:57;31.93;30.18;33.37;;
67300;Laerm;57658;51.436;5.980;2023-11-21T00:42:07;31.50;29.51;33.41;;
67300;Laerm;57658;51.436;5.980;2023-11-21T00:42:18;31.30;29.43;32.85;;
67300;Laerm;57658;51.436;5.980;2023-11-21T00:42:28;31.45;29.69;32.98;;
67300;Laerm;57658;51.436;5.980;2023-11-21T00:42:39;31.80;30.33;33.16;;
67300;Laerm;57658;51.436;5.980;2023-11-21T00:42:49;33.10;30.83;36.77;;
67300;Laerm;57658;51.436;5.980;2023-11-21T00:42:59;33.27;31.06;36.79;;
67300;Laerm;57658;51.436;5.980;2023-11-21T00:43:09;32.27;30.80;34.24;;
67300;Laerm;57658;51.436;5.980;2023-11-21T00:43:20;31.56;30.13;32.67;;
67300;Laerm;57658;51.436;5.980;2023-11-21T00:43:30;30.68;29.17;32.15;;
67300;Laerm;57658;51.436;5.980;2023-11-21T00:43:40;30.42;29.07;31.72;;
67300;Laerm;57658;51.436;5.980;2023-11-21T00:43:50;30.51;29.18;31.82;;
67300;Laerm;57658;51.436;5.980;2023-11-21T00:44:01;30.77;29.36;32.17;;
67300;Laerm;57658;51.436;5.980;2023-11-21T00:44:12;30.72;28.98;31.95;;
67300;Laerm;57658;51.436;5.980;2023-11-21T00:44:22;30.63;29.12;32.33;;
67300;Laerm;57658;51.436;5.980;2023-11-21T00:44:32;30.62;29.27;32.17;;
67300;Laerm;57658;51.436;5.980;2023-11-21T00:44:44;31.00;29.34;34.66;;
67300;Laerm;57658;51.436;5.980;2023-11-21T00:44:54;30.88;28.95;32.46;;
67300;Laerm;57658;51.436;5.980;2023-11-21T00:45:05;30.74;29.16;32.33;;
67300;Laerm;57658;51.436;5.980;2023-11-21T00:45:16;30.93;29.11;32.72;;
67300;Laerm;57658;51.436;5.980;2023-11-21T00:45:26;31.44;30.00;34.52;;
67300;Laerm;57658;51.436;5.980;2023-11-21T00:45:36;31.40;29.62;32.95;;
67300;Laerm;57658;51.436;5.980;2023-11-21T00:45:47;31.62;30.23;35.17;;
67300;Laerm;57658;51.436;5.980;2023-11-21T00:45:59;31.63;30.05;34.79;;
67300;Laerm;57658;51.436;5.980;2023-11-21T00:46:09;31.99;30.39;33.15;;
67300;Laerm;57658;51.436;5.980;2023-11-21T00:46:19;32.27;30.98;33.59;;
67300;Laerm;57658;51.436;5.980;2023-11-21T00:46:30;32.50;30.65;33.90;;
67300;Laerm;57658;51.436;5.980;2023-11-21T00:46:40;32.44;31.02;33.69;;
67300;Laerm;57658;51.436;5.980;2023-11-21T00:46:50;32.27;30.73;33.49;;
67300;Laerm;57658;51.436;5.980;2023-11-21T00:47:01;31.21;29.66;32.59;;
67300;Laerm;57658;51.436;5.980;2023-11-21T00:47:11;31.04;29.62;32.29;;
67300;Laerm;57658;51.436;5.980;2023-11-21T00:47:22;31.71;30.00;33.52;;
67300;Laerm;57658;51.436;5.980;2023-11-21T00:47:32;33.88;30.29;36.71;;
67300;Laerm;57658;51.436;5.980;2023-11-21T00:47:43;34.03;31.36;36.97;;
67300;Laerm;57658;51.436;5.980;2023-11-21T00:47:53;33.38;31.32;37.73;;
67300;Laerm;57658;51.436;5.980;2023-11-21T00:48:03;34.79;31.76;37.75;;
67300;Laerm;57658;51.436;5.980;2023-11-21T00:48:14;62.57;34.97;71.95;;
67300;Laerm;57658;51.436;5.980;2023-11-21T00:48:25;67.31;56.61;72.43;;
67300;Laerm;57658;51.436;5.980;2023-11-21T00:48:35;57.63;54.27;60.04;;
67300;Laerm;57658;51.436;5.980;2023-11-21T00:48:45;57.61;53.47;60.05;;
67300;Laerm;57658;51.436;5.980;2023-11-21T00:48:56;58.88;54.26;62.17;;
67300;Laerm;57658;51.436;5.980;2023-11-21T00:49:06;89.76;59.66;97.67;;
67300;Laerm;57658;51.436;5.980;2023-11-21T00:49:16;89.52;82.24;99.06;;
67300;Laerm;57658;51.436;5.980;2023-11-21T00:49:26;83.70;60.69;94.81;;
67300;Laerm;57658;51.436;5.980;2023-11-21T00:49:38;58.00;45.52;63.99;;
67300;Laerm;57658;51.436;5.980;2023-11-21T00:49:49;42.57;35.67;47.82;;
67300;Laerm;57658;51.436;5.980;2023-11-21T00:49:59;36.87;33.59;41.23;;
67300;Laerm;57658;51.436;5.980;2023-11-21T00:50:09;33.14;31.11;35.49;;
67300;Laerm;57658;51.436;5.980;2023-11-21T00:50:21;31.96;30.19;33.37;;
67300;Laerm;57658;51.436;5.980;2023-11-21T00:50:31;31.00;29.50;32.56;;
67300;Laerm;57658;51.436;5.980;2023-11-21T00:50:42;30.41;28.98;31.82;;
67300;Laerm;57658;51.436;5.980;2023-11-21T00:50:52;31.15;29.32;34.25;;
67300;Laerm;57658;51.436;5.980;2023-11-21T00:51:02;32.83;29.96;35.69;;
67300;Laerm;57658;51.436;5.980;2023-11-21T00:51:13;31.83;30.07;34.92;;
67300;Laerm;57658;51.436;5.980;2023-11-21T00:51:23;31.62;29.56;34.23;;
67300;Laerm;57658;51.436;5.980;2023-11-21T00:51:34;30.83;29.12;32.22;;
67300;Laerm;57658;51.436;5.980;2023-11-21T00:51:44;31.52;29.57;35.16;;
67300;Laerm;57658;51.436;5.980;2023-11-21T00:51:55;31.58;30.04;33.13;;
67300;Laerm;57658;51.436;5.980;2023-11-21T00:52:06;31.28;29.66;33.11;;
67300;Laerm;57658;51.436;5.980;2023-11-21T00:52:17;31.21;29.54;32.74;;
67300;Laerm;57658;51.436;5.980;2023-11-21T00:52:27;31.13;29.31;32.54;;
67300;Laerm;57658;51.436;5.980;2023-11-21T00:52:37;31.53;29.93;33.05;;
67300;Laerm;57658;51.436;5.980;2023-11-21T00:52:47;31.66;29.96;33.84;;
67300;Laerm;57658;51.436;5.980;2023-11-21T00:52:58;31.67;30.02;33.30;;
67300;Laerm;57658;51.436;5.980;2023-11-21T00:53:08;31.90;29.87;33.51;;
67300;Laerm;57658;51.436;5.980;2023-11-21T00:53:18;32.22;30.32;35.47;;
67300;Laerm;57658;51.436;5.980;2023-11-21T00:53:28;32.82;31.08;34.26;;
67300;Laerm;57658;51.436;5.980;2023-11-21T00:53:39;33.56;31.81;35.45;;
67300;Laerm;57658;51.436;5.980;2023-11-21T00:53:49;33.47;31.82;35.42;;
67300;Laerm;57658;51.436;5.980;2023-11-21T00:54:00;33.88;31.79;36.85;;
67300;Laerm;57658;51.436;5.980;2023-11-21T00:54:10;63.29;32.51;72.00;;
67300;Laerm;57658;51.436;5.980;2023-11-21T00:54:21;67.30;58.95;71.02;;
67300;Laerm;57658;51.436;5.980;2023-11-21T00:54:31;58.35;54.98;60.45;;
67300;Laerm;57658;51.436;5.980;2023-11-21T00:54:41;57.65;54.13;60.11;;
67300;Laerm;57658;51.436;5.980;2023-11-21T00:54:52;57.48;53.40;59.49;;
67300;Laerm;57658;51.436;5.980;2023-11-21T00:55:03;71.48;54.65;84.13;;
67300;Laerm;57658;51.436;5.980;2023-11-21T00:55:13;85.20;81.33;89.67;;
67300;Laerm;57658;51.436;5.980;2023-11-21T00:55:23;84.88;70.45;90.56;;
67300;Laerm;57658;51.436;5.980;2023-11-21T00:55:36;62.74;47.47;73.40;;
67300;Laerm;57658;51.436;5.980;2023-11-21T00:55:47;45.89;39.87;51.52;;
67300;Laerm;57658;51.436;5.980;2023-11-21T00:55:57;38.30;33.91;43.67;;
67300;Laerm;57658;51.436;5.980;2023-11-21T00:56:08;33.83;30.68;36.52;;
67300;Laerm;57658;51.436;5.980;2023-11-21T00:56:18;32.30;30.16;34.55;;
67300;Laerm;57658;51.436;5.980;2023-11-21T00:56:29;31.98;30.20;34.35;;
67300;Laerm;57658;51.436;5.980;2023-11-21T00:56:39;31.94;30.34;33.60;;
67300;Laerm;57658;51.436;5.980;2023-11-21T00:56:50;32.05;30.40;33.48;;
67300;Laerm;57658;51.436;5.980;2023-11-21T00:57:00;31.92;29.86;33.35;;
67300;Laerm;57658;51.436;5.980;2023-11-21T00:57:10;31.86;29.97;33.40;;
67300;Laerm;57658;51.436;5.980;2023-11-21T00:57:22;31.97;30.17;33.63;;
67300;Laerm;57658;51.436;5.980;2023-11-21T00:57:32;31.71;30.16;32.98;;
67300;Laerm;57658;51.436;5.980;2023-11-21T00:57:42;30.84;29.27;32.24;;
67300;Laerm;57658;51.436;5.980;2023-11-21T00:57:53;30.39;29.04;31.56;;
67300;Laerm;57658;51.436;5.980;2023-11-21T00:58:03;30.47;29.16;32.08;;
67300;Laerm;57658;51.436;5.980;2023-11-21T00:58:14;30.37;29.00;31.54;;
67300;Laerm;57658;51.436;5.980;2023-11-21T00:58:24;30.74;28.94;32.91;;
67300;Laerm;57658;51.436;5.980;2023-11-21T00:58:35;30.79;29.18;32.54;;
67300;Laerm;57658;51.436;5.980;2023-11-21T00:58:45;30.73;29.21;32.57;;
67300;Laerm;57658;51.436;5.980;2023-11-21T00:58:59;30.78;29.18;32.44;;
67300;Laerm;57658;51.436;5.980;2023-11-21T00:59:10;30.78;28.93;32.42;;
67300;Laerm;57658;51.436;5.980;2023-11-21T00:59:21;30.75;28.93;32.03;;